sensor_id;sensor_type;location;lat;lon;timestamp;P1;durP1;ratioP1;P2;durP2;ratioP2
24335;SDS011;33098;52.400;16.880;2023-06-14T00:00:32;7.20;;;6.50;;
24335;SDS011;33098;52.400;16.880;2023-06-14T00:03:20;7.30;;;6.30;;
24335;SDS011;33098;52.400;16.880;2023-06-14T00:05:48;6.60;;;6.00;;
24335;SDS011;33098;52.400;16.880;2023-06-14T00:08:15;6.30;;;5.70;;
24335;SDS011;33098;52.400;16.880;2023-06-14T00:10:42;7.40;;;6.00;;
24335;SDS011;33098;52.400;16.880;2023-06-14T00:13:09;6.30;;;5.70;;
24335;SDS011;33098;52.400;16.880;2023-06-14T00:15:35;6.70;;;5.80;;
24335;SDS011;33098;52.400;16.880;2023-06-14T00:18:02;6.90;;;5.20;;
24335;SDS011;33098;52.400;16.880;2023-06-14T00:20:30;5.90;;;5.30;;
24335;SDS011;33098;52.400;16.880;2023-06-14T00:22:59;6.10;;;5.50;;
24335;SDS011;33098;52.400;16.880;2023-06-14T00:25:26;5.80;;;5.30;;
24335;SDS011;33098;52.400;16.880;2023-06-14T00:27:53;6.80;;;5.90;;
24335;SDS011;33098;52.400;16.880;2023-06-14T00:30:21;9.30;;;5.60;;
24335;SDS011;33098;52.400;16.880;2023-06-14T00:32:47;7.40;;;5.40;;
24335;SDS011;33098;52.400;16.880;2023-06-14T00:35:15;6.50;;;5.80;;
24335;SDS011;33098;52.400;16.880;2023-06-14T00:37:41;6.90;;;5.90;;
24335;SDS011;33098;52.400;16.880;2023-06-14T00:40:08;6.50;;;5.90;;
24335;SDS011;33098;52.400;16.880;2023-06-14T00:42:35;7.70;;;5.80;;
24335;SDS011;33098;52.400;16.880;2023-06-14T00:45:01;7.40;;;5.50;;
24335;SDS011;33098;52.400;16.880;2023-06-14T00:47:28;6.80;;;5.20;;
24335;SDS011;33098;52.400;16.880;2023-06-14T00:49:55;5.20;;;4.70;;
24335;SDS011;33098;52.400;16.880;2023-06-14T00:52:23;5.80;;;5.30;;
24335;SDS011;33098;52.400;16.880;2023-06-14T00:54:52;6.50;;;5.20;;
24335;SDS011;33098;52.400;16.880;2023-06-14T00:57:19;6.70;;;5.10;;
24335;SDS011;33098;52.400;16.880;2023-06-14T00:59:47;6.70;;;5.00;;
24335;SDS011;33098;52.400;16.880;2023-06-14T01:02:15;5.70;;;4.60;;
24335;SDS011;33098;52.400;16.880;2023-06-14T01:04:42;5.70;;;4.80;;
24335;SDS011;33098;52.400;16.880;2023-06-14T01:07:25;5.70;;;4.50;;
24335;SDS011;33098;52.400;16.880;2023-06-14T01:13:07;8.50;;;4.80;;
24335;SDS011;33098;52.400;16.880;2023-06-14T01:15:39;6.60;;;5.00;;
24335;SDS011;33098;52.400;16.880;2023-06-14T01:18:09;6.50;;;4.80;;
24335;SDS011;33098;52.400;16.880;2023-06-14T01:20:44;8.40;;;4.70;;
24335;SDS011;33098;52.400;16.880;2023-06-14T01:23:16;4.40;;;3.90;;
24335;SDS011;33098;52.400;16.880;2023-06-14T01:25:44;4.70;;;4.00;;
24335;SDS011;33098;52.400;16.880;2023-06-14T01:28:12;6.00;;;4.10;;
24335;SDS011;33098;52.400;16.880;2023-06-14T01:30:41;6.90;;;3.80;;
24335;SDS011;33098;52.400;16.880;2023-06-14T01:38:10;7.90;;;4.40;;
24335;SDS011;33098;52.400;16.880;2023-06-14T01:40:38;5.20;;;3.80;;
24335;SDS011;33098;52.400;16.880;2023-06-14T01:43:06;7.10;;;4.30;;
24335;SDS011;33098;52.400;16.880;2023-06-14T01:45:33;5.70;;;3.60;;
24335;SDS011;33098;52.400;16.880;2023-06-14T01:48:00;4.40;;;4.00;;
24335;SDS011;33098;52.400;16.880;2023-06-14T01:50:28;5.70;;;4.10;;
24335;SDS011;33098;52.400;16.880;2023-06-14T01:52:57;4.40;;;3.70;;
24335;SDS011;33098;52.400;16.880;2023-06-14T01:55:24;4.20;;;3.80;;
24335;SDS011;33098;52.400;16.880;2023-06-14T01:57:51;4.30;;;3.80;;
24335;SDS011;33098;52.400;16.880;2023-06-14T02:00:18;4.90;;;4.30;;
24335;SDS011;33098;52.400;16.880;2023-06-14T02:02:45;6.60;;;4.70;;
24335;SDS011;33098;52.400;16.880;2023-06-14T02:05:12;5.10;;;4.10;;
24335;SDS011;33098;52.400;16.880;2023-06-14T02:07:41;6.50;;;4.30;;
24335;SDS011;33098;52.400;16.880;2023-06-14T02:10:08;6.80;;;4.20;;
24335;SDS011;33098;52.400;16.880;2023-06-14T02:12:34;6.20;;;4.10;;
24335;SDS011;33098;52.400;16.880;2023-06-14T02:15:01;5.90;;;4.00;;
24335;SDS011;33098;52.400;16.880;2023-06-14T02:17:29;6.80;;;4.20;;
24335;SDS011;33098;52.400;16.880;2023-06-14T02:19:55;6.00;;;4.00;;
24335;SDS011;33098;52.400;16.880;2023-06-14T02:22:23;4.70;;;3.90;;
24335;SDS011;33098;52.400;16.880;2023-06-14T02:24:49;5.30;;;4.00;;
24335;SDS011;33098;52.400;16.880;2023-06-14T02:27:16;7.00;;;4.20;;
24335;SDS011;33098;52.400;16.880;2023-06-14T02:29:43;4.90;;;4.00;;
24335;SDS011;33098;52.400;16.880;2023-06-14T02:32:09;7.20;;;4.00;;
24335;SDS011;33098;52.400;16.880;2023-06-14T02:34:36;6.30;;;4.10;;
24335;SDS011;33098;52.400;16.880;2023-06-14T02:37:03;5.90;;;3.50;;
24335;SDS011;33098;52.400;16.880;2023-06-14T02:39:30;4.20;;;3.80;;
24335;SDS011;33098;52.400;16.880;2023-06-14T02:41:57;4.50;;;3.90;;
24335;SDS011;33098;52.400;16.880;2023-06-14T02:44:26;4.60;;;3.80;;
24335;SDS011;33098;52.400;16.880;2023-06-14T02:46:54;3.90;;;3.60;;
24335;SDS011;33098;52.400;16.880;2023-06-14T02:49:22;5.40;;;3.90;;
24335;SDS011;33098;52.400;16.880;2023-06-14T02:51:49;4.60;;;4.20;;
24335;SDS011;33098;52.400;16.880;2023-06-14T02:54:15;4.20;;;3.80;;
24335;SDS011;33098;52.400;16.880;2023-06-14T02:56:42;5.20;;;4.30;;
24335;SDS011;33098;52.400;16.880;2023-06-14T02:59:10;5.00;;;4.10;;
24335;SDS011;33098;52.400;16.880;2023-06-14T03:01:36;4.60;;;4.10;;
24335;SDS011;33098;52.400;16.880;2023-06-14T03:04:07;4.30;;;3.90;;
24335;SDS011;33098;52.400;16.880;2023-06-14T03:06:36;6.40;;;4.30;;
24335;SDS011;33098;52.400;16.880;2023-06-14T03:09:03;7.20;;;4.50;;
24335;SDS011;33098;52.400;16.880;2023-06-14T03:11:35;6.30;;;3.70;;
24335;SDS011;33098;52.400;16.880;2023-06-14T03:14:02;6.40;;;3.90;;
24335;SDS011;33098;52.400;16.880;2023-06-14T03:16:30;4.40;;;4.00;;
24335;SDS011;33098;52.400;16.880;2023-06-14T03:18:58;5.10;;;4.30;;
24335;SDS011;33098;52.400;16.880;2023-06-14T03:21:26;5.20;;;4.30;;
24335;SDS011;33098;52.400;16.880;2023-06-14T03:23:53;5.00;;;4.30;;
24335;SDS011;33098;52.400;16.880;2023-06-14T03:26:20;6.40;;;4.10;;
24335;SDS011;33098;52.400;16.880;2023-06-14T03:28:48;6.20;;;3.80;;
24335;SDS011;33098;52.400;16.880;2023-06-14T03:31:16;4.30;;;3.80;;
24335;SDS011;33098;52.400;16.880;2023-06-14T03:33:43;5.00;;;4.00;;
24335;SDS011;33098;52.400;16.880;2023-06-14T03:36:10;7.00;;;4.20;;
24335;SDS011;33098;52.400;16.880;2023-06-14T03:38:36;5.00;;;4.00;;
24335;SDS011;33098;52.400;16.880;2023-06-14T03:41:03;8.10;;;4.40;;
24335;SDS011;33098;52.400;16.880;2023-06-14T03:43:32;5.40;;;4.10;;
24335;SDS011;33098;52.400;16.880;2023-06-14T03:46:00;6.10;;;4.20;;
24335;SDS011;33098;52.400;16.880;2023-06-14T03:48:27;6.00;;;4.30;;
24335;SDS011;33098;52.400;16.880;2023-06-14T03:50:53;4.90;;;4.40;;
24335;SDS011;33098;52.400;16.880;2023-06-14T03:53:21;5.30;;;4.00;;
24335;SDS011;33098;52.400;16.880;2023-06-14T03:55:50;5.10;;;4.30;;
24335;SDS011;33098;52.400;16.880;2023-06-14T03:58:19;6.90;;;4.90;;
24335;SDS011;33098;52.400;16.880;2023-06-14T04:00:46;6.20;;;4.60;;
24335;SDS011;33098;52.400;16.880;2023-06-14T04:03:13;7.40;;;4.70;;
24335;SDS011;33098;52.400;16.880;2023-06-14T04:05:42;5.60;;;4.40;;
24335;SDS011;33098;52.400;16.880;2023-06-14T04:08:09;5.30;;;4.40;;
24335;SDS011;33098;52.400;16.880;2023-06-14T04:10:37;4.80;;;4.30;;
24335;SDS011;33098;52.400;16.880;2023-06-14T04:13:03;4.90;;;4.30;;
24335;SDS011;33098;52.400;16.880;2023-06-14T04:15:31;6.70;;;4.00;;
24335;SDS011;33098;52.400;16.880;2023-06-14T04:17:58;4.80;;;4.30;;
24335;SDS011;33098;52.400;16.880;2023-06-14T04:20:26;6.10;;;4.50;;
24335;SDS011;33098;52.400;16.880;2023-06-14T04:22:53;5.50;;;4.60;;
24335;SDS011;33098;52.400;16.880;2023-06-14T04:25:20;8.50;;;4.60;;
24335;SDS011;33098;52.400;16.880;2023-06-14T04:27:47;5.60;;;4.50;;
24335;SDS011;33098;52.400;16.880;2023-06-14T04:30:14;5.10;;;4.40;;
24335;SDS011;33098;52.400;16.880;2023-06-14T04:32:48;4.70;;;4.30;;
24335;SDS011;33098;52.400;16.880;2023-06-14T04:35:16;5.90;;;4.20;;
24335;SDS011;33098;52.400;16.880;2023-06-14T04:37:44;6.00;;;4.50;;
24335;SDS011;33098;52.400;16.880;2023-06-14T04:40:12;5.90;;;4.50;;
24335;SDS011;33098;52.400;16.880;2023-06-14T04:42:39;5.70;;;4.10;;
24335;SDS011;33098;52.400;16.880;2023-06-14T04:45:07;8.40;;;4.70;;
24335;SDS011;33098;52.400;16.880;2023-06-14T04:47:36;6.70;;;4.50;;
24335;SDS011;33098;52.400;16.880;2023-06-14T04:50:05;4.90;;;4.40;;
24335;SDS011;33098;52.400;16.880;2023-06-14T04:52:32;4.60;;;4.10;;
24335;SDS011;33098;52.400;16.880;2023-06-14T04:54:59;5.10;;;4.30;;
24335;SDS011;33098;52.400;16.880;2023-06-14T04:57:26;6.20;;;4.70;;
24335;SDS011;33098;52.400;16.880;2023-06-14T04:59:56;6.10;;;4.50;;
24335;SDS011;33098;52.400;16.880;2023-06-14T05:02:25;6.40;;;4.80;;
24335;SDS011;33098;52.400;16.880;2023-06-14T05:04:53;8.00;;;4.60;;
24335;SDS011;33098;52.400;16.880;2023-06-14T05:07:19;6.60;;;4.50;;
24335;SDS011;33098;52.400;16.880;2023-06-14T05:09:48;4.80;;;4.30;;
24335;SDS011;33098;52.400;16.880;2023-06-14T05:12:15;6.30;;;4.50;;
24335;SDS011;33098;52.400;16.880;2023-06-14T05:14:45;9.20;;;4.80;;
24335;SDS011;33098;52.400;16.880;2023-06-14T05:17:12;6.90;;;4.70;;
24335;SDS011;33098;52.400;16.880;2023-06-14T05:19:38;5.90;;;3.90;;
24335;SDS011;33098;52.400;16.880;2023-06-14T05:22:06;7.00;;;4.90;;
24335;SDS011;33098;52.400;16.880;2023-06-14T05:24:32;5.00;;;4.20;;
24335;SDS011;33098;52.400;16.880;2023-06-14T05:26:59;5.80;;;4.50;;
24335;SDS011;33098;52.400;16.880;2023-06-14T05:29:25;4.70;;;4.30;;
24335;SDS011;33098;52.400;16.880;2023-06-14T05:31:53;4.40;;;4.00;;
24335;SDS011;33098;52.400;16.880;2023-06-14T05:34:20;6.60;;;5.60;;
24335;SDS011;33098;52.400;16.880;2023-06-14T05:36:46;7.70;;;5.00;;
24335;SDS011;33098;52.400;16.880;2023-06-14T05:39:13;8.00;;;4.90;;
24335;SDS011;33098;52.400;16.880;2023-06-14T05:41:40;6.60;;;5.10;;
24335;SDS011;33098;52.400;16.880;2023-06-14T05:44:06;7.90;;;4.80;;
24335;SDS011;33098;52.400;16.880;2023-06-14T05:46:33;7.20;;;4.90;;
24335;SDS011;33098;52.400;16.880;2023-06-14T05:49:00;9.50;;;5.50;;
24335;SDS011;33098;52.400;16.880;2023-06-14T05:51:27;7.40;;;5.20;;
24335;SDS011;33098;52.400;16.880;2023-06-14T05:53:54;7.00;;;4.70;;
24335;SDS011;33098;52.400;16.880;2023-06-14T05:56:20;7.80;;;4.90;;
24335;SDS011;33098;52.400;16.880;2023-06-14T05:58:47;6.90;;;5.30;;
24335;SDS011;33098;52.400;16.880;2023-06-14T06:01:14;8.60;;;5.10;;
24335;SDS011;33098;52.400;16.880;2023-06-14T06:03:41;6.50;;;4.50;;
24335;SDS011;33098;52.400;16.880;2023-06-14T06:06:07;7.00;;;5.00;;
24335;SDS011;33098;52.400;16.880;2023-06-14T06:08:34;8.70;;;5.10;;
24335;SDS011;33098;52.400;16.880;2023-06-14T06:11:01;8.40;;;5.30;;
24335;SDS011;33098;52.400;16.880;2023-06-14T06:13:28;7.30;;;4.90;;
24335;SDS011;33098;52.400;16.880;2023-06-14T06:15:54;7.20;;;4.70;;
24335;SDS011;33098;52.400;16.880;2023-06-14T06:18:22;5.80;;;4.70;;
24335;SDS011;33098;52.400;16.880;2023-06-14T06:20:49;5.80;;;4.50;;
24335;SDS011;33098;52.400;16.880;2023-06-14T06:23:15;6.70;;;4.90;;
24335;SDS011;33098;52.400;16.880;2023-06-14T06:25:42;6.20;;;4.20;;
24335;SDS011;33098;52.400;16.880;2023-06-14T06:28:09;8.00;;;4.70;;
24335;SDS011;33098;52.400;16.880;2023-06-14T06:30:36;6.20;;;4.80;;
24335;SDS011;33098;52.400;16.880;2023-06-14T06:33:02;9.00;;;5.00;;
24335;SDS011;33098;52.400;16.880;2023-06-14T06:35:29;8.10;;;5.00;;
24335;SDS011;33098;52.400;16.880;2023-06-14T06:37:57;5.20;;;4.20;;
24335;SDS011;33098;52.400;16.880;2023-06-14T06:40:23;7.70;;;4.80;;
24335;SDS011;33098;52.400;16.880;2023-06-14T06:42:50;7.80;;;4.70;;
24335;SDS011;33098;52.400;16.880;2023-06-14T06:45:17;9.00;;;4.90;;
24335;SDS011;33098;52.400;16.880;2023-06-14T06:47:44;6.60;;;4.70;;
24335;SDS011;33098;52.400;16.880;2023-06-14T06:50:11;6.40;;;4.90;;
24335;SDS011;33098;52.400;16.880;2023-06-14T06:52:37;7.60;;;4.70;;
24335;SDS011;33098;52.400;16.880;2023-06-14T06:55:04;6.10;;;4.50;;
24335;SDS011;33098;52.400;16.880;2023-06-14T06:57:31;8.10;;;5.20;;
24335;SDS011;33098;52.400;16.880;2023-06-14T06:59:58;7.80;;;5.50;;
24335;SDS011;33098;52.400;16.880;2023-06-14T07:02:24;10.00;;;5.40;;
24335;SDS011;33098;52.400;16.880;2023-06-14T07:04:51;7.00;;;4.70;;
24335;SDS011;33098;52.400;16.880;2023-06-14T07:07:17;7.70;;;4.60;;
24335;SDS011;33098;52.400;16.880;2023-06-14T07:09:44;6.40;;;5.00;;
24335;SDS011;33098;52.400;16.880;2023-06-14T07:12:12;6.30;;;4.70;;
24335;SDS011;33098;52.400;16.880;2023-06-14T07:14:38;8.20;;;4.60;;
24335;SDS011;33098;52.400;16.880;2023-06-14T07:17:05;8.00;;;4.90;;
24335;SDS011;33098;52.400;16.880;2023-06-14T07:19:32;8.00;;;4.60;;
24335;SDS011;33098;52.400;16.880;2023-06-14T07:21:59;7.50;;;4.70;;
24335;SDS011;33098;52.400;16.880;2023-06-14T07:24:26;6.30;;;4.10;;
24335;SDS011;33098;52.400;16.880;2023-06-14T07:26:54;6.90;;;4.10;;
24335;SDS011;33098;52.400;16.880;2023-06-14T07:29:21;9.80;;;4.60;;
24335;SDS011;33098;52.400;16.880;2023-06-14T07:31:48;9.60;;;4.40;;
24335;SDS011;33098;52.400;16.880;2023-06-14T07:34:14;6.80;;;4.40;;
24335;SDS011;33098;52.400;16.880;2023-06-14T07:36:41;7.70;;;4.60;;
24335;SDS011;33098;52.400;16.880;2023-06-14T07:39:10;6.60;;;4.30;;
24335;SDS011;33098;52.400;16.880;2023-06-14T07:41:37;8.00;;;4.30;;
24335;SDS011;33098;52.400;16.880;2023-06-14T07:44:04;9.40;;;4.70;;
24335;SDS011;33098;52.400;16.880;2023-06-14T07:46:30;6.00;;;4.30;;
24335;SDS011;33098;52.400;16.880;2023-06-14T07:48:57;7.60;;;4.60;;
24335;SDS011;33098;52.400;16.880;2023-06-14T07:51:23;5.70;;;4.00;;
24335;SDS011;33098;52.400;16.880;2023-06-14T07:53:49;5.70;;;4.30;;
24335;SDS011;33098;52.400;16.880;2023-06-14T07:56:16;9.80;;;4.40;;
24335;SDS011;33098;52.400;16.880;2023-06-14T07:58:43;4.70;;;4.10;;
24335;SDS011;33098;52.400;16.880;2023-06-14T08:01:09;5.40;;;4.60;;
24335;SDS011;33098;52.400;16.880;2023-06-14T08:03:37;6.70;;;4.70;;
24335;SDS011;33098;52.400;16.880;2023-06-14T08:06:04;5.80;;;4.20;;
24335;SDS011;33098;52.400;16.880;2023-06-14T08:08:32;6.20;;;4.30;;
24335;SDS011;33098;52.400;16.880;2023-06-14T08:10:59;5.60;;;4.30;;
24335;SDS011;33098;52.400;16.880;2023-06-14T08:13:26;5.40;;;4.20;;
24335;SDS011;33098;52.400;16.880;2023-06-14T08:15:52;4.80;;;4.10;;
24335;SDS011;33098;52.400;16.880;2023-06-14T08:18:19;8.50;;;4.70;;
24335;SDS011;33098;52.400;16.880;2023-06-14T08:20:46;9.20;;;4.70;;
24335;SDS011;33098;52.400;16.880;2023-06-14T08:23:13;7.60;;;4.70;;
24335;SDS011;33098;52.400;16.880;2023-06-14T08:25:39;9.90;;;5.30;;
24335;SDS011;33098;52.400;16.880;2023-06-14T08:28:06;7.40;;;5.00;;
24335;SDS011;33098;52.400;16.880;2023-06-14T08:30:32;8.70;;;5.00;;
24335;SDS011;33098;52.400;16.880;2023-06-14T08:32:59;10.50;;;5.00;;
24335;SDS011;33098;52.400;16.880;2023-06-14T08:35:25;7.50;;;4.60;;
24335;SDS011;33098;52.400;16.880;2023-06-14T08:37:52;8.00;;;4.80;;
24335;SDS011;33098;52.400;16.880;2023-06-14T08:40:21;5.50;;;4.30;;
24335;SDS011;33098;52.400;16.880;2023-06-14T08:42:52;7.00;;;4.50;;
24335;SDS011;33098;52.400;16.880;2023-06-14T08:45:20;4.70;;;4.30;;
24335;SDS011;33098;52.400;16.880;2023-06-14T08:47:48;5.90;;;4.50;;
24335;SDS011;33098;52.400;16.880;2023-06-14T08:52:48;6.80;;;4.70;;
24335;SDS011;33098;52.400;16.880;2023-06-14T08:55:19;5.70;;;4.70;;
24335;SDS011;33098;52.400;16.880;2023-06-14T08:57:52;8.30;;;5.20;;
24335;SDS011;33098;52.400;16.880;2023-06-14T09:00:20;7.00;;;4.90;;
24335;SDS011;33098;52.400;16.880;2023-06-14T09:02:48;7.90;;;4.20;;
24335;SDS011;33098;52.400;16.880;2023-06-14T09:05:15;7.90;;;4.10;;
24335;SDS011;33098;52.400;16.880;2023-06-14T09:07:44;7.20;;;3.70;;
24335;SDS011;33098;52.400;16.880;2023-06-14T09:10:11;6.80;;;4.20;;
24335;SDS011;33098;52.400;16.880;2023-06-14T09:12:39;4.50;;;3.50;;
24335;SDS011;33098;52.400;16.880;2023-06-14T09:15:06;7.00;;;3.60;;
24335;SDS011;33098;52.400;16.880;2023-06-14T09:17:35;7.20;;;3.80;;
24335;SDS011;33098;52.400;16.880;2023-06-14T09:20:02;9.20;;;3.80;;
24335;SDS011;33098;52.400;16.880;2023-06-14T09:24:59;7.80;;;3.60;;
24335;SDS011;33098;52.400;16.880;2023-06-14T09:27:26;7.10;;;3.80;;
24335;SDS011;33098;52.400;16.880;2023-06-14T09:29:54;4.50;;;3.40;;
24335;SDS011;33098;52.400;16.880;2023-06-14T09:32:21;5.40;;;3.90;;
24335;SDS011;33098;52.400;16.880;2023-06-14T09:34:48;6.50;;;3.50;;
24335;SDS011;33098;52.400;16.880;2023-06-14T09:37:26;5.80;;;3.50;;
24335;SDS011;33098;52.400;16.880;2023-06-14T09:39:54;6.30;;;3.40;;
24335;SDS011;33098;52.400;16.880;2023-06-14T09:42:20;6.80;;;3.20;;
24335;SDS011;33098;52.400;16.880;2023-06-14T09:44:49;7.90;;;3.80;;
24335;SDS011;33098;52.400;16.880;2023-06-14T09:47:16;6.50;;;3.50;;
24335;SDS011;33098;52.400;16.880;2023-06-14T09:49:42;6.00;;;3.60;;
24335;SDS011;33098;52.400;16.880;2023-06-14T09:52:17;4.60;;;3.10;;
24335;SDS011;33098;52.400;16.880;2023-06-14T09:54:46;6.00;;;3.40;;
24335;SDS011;33098;52.400;16.880;2023-06-14T09:57:14;5.70;;;4.00;;
24335;SDS011;33098;52.400;16.880;2023-06-14T09:59:43;4.20;;;3.80;;
24335;SDS011;33098;52.400;16.880;2023-06-14T10:04:53;7.60;;;3.80;;
24335;SDS011;33098;52.400;16.880;2023-06-14T10:07:27;7.20;;;4.00;;
24335;SDS011;33098;52.400;16.880;2023-06-14T10:09:59;8.80;;;3.90;;
24335;SDS011;33098;52.400;16.880;2023-06-14T10:12:26;5.40;;;3.60;;
24335;SDS011;33098;52.400;16.880;2023-06-14T10:14:53;8.70;;;3.80;;
24335;SDS011;33098;52.400;16.880;2023-06-14T10:17:22;9.00;;;3.80;;
24335;SDS011;33098;52.400;16.880;2023-06-14T10:19:50;6.50;;;3.70;;
24335;SDS011;33098;52.400;16.880;2023-06-14T10:22:36;4.40;;;3.50;;
24335;SDS011;33098;52.400;16.880;2023-06-14T10:25:12;7.10;;;3.90;;
24335;SDS011;33098;52.400;16.880;2023-06-14T10:27:39;4.70;;;3.20;;
24335;SDS011;33098;52.400;16.880;2023-06-14T10:30:11;5.80;;;3.60;;
24335;SDS011;33098;52.400;16.880;2023-06-14T10:35:29;5.10;;;3.80;;
24335;SDS011;33098;52.400;16.880;2023-06-14T10:38:04;7.30;;;3.70;;
24335;SDS011;33098;52.400;16.880;2023-06-14T10:40:33;9.70;;;4.00;;
24335;SDS011;33098;52.400;16.880;2023-06-14T10:43:00;5.50;;;3.80;;
24335;SDS011;33098;52.400;16.880;2023-06-14T10:45:26;7.20;;;3.50;;
24335;SDS011;33098;52.400;16.880;2023-06-14T10:47:53;6.10;;;3.40;;
24335;SDS011;33098;52.400;16.880;2023-06-14T10:50:29;4.70;;;3.40;;
24335;SDS011;33098;52.400;16.880;2023-06-14T10:52:56;6.00;;;3.60;;
24335;SDS011;33098;52.400;16.880;2023-06-14T10:55:22;5.00;;;3.50;;
24335;SDS011;33098;52.400;16.880;2023-06-14T11:00:28;8.00;;;3.80;;
24335;SDS011;33098;52.400;16.880;2023-06-14T11:05:53;4.90;;;3.60;;
24335;SDS011;33098;52.400;16.880;2023-06-14T11:08:32;8.20;;;3.60;;
24335;SDS011;33098;52.400;16.880;2023-06-14T11:11:10;8.30;;;4.50;;
24335;SDS011;33098;52.400;16.880;2023-06-14T11:13:42;6.90;;;3.90;;
24335;SDS011;33098;52.400;16.880;2023-06-14T11:16:11;6.00;;;3.50;;
24335;SDS011;33098;52.400;16.880;2023-06-14T11:18:39;7.90;;;3.80;;
24335;SDS011;33098;52.400;16.880;2023-06-14T11:21:06;6.40;;;3.60;;
24335;SDS011;33098;52.400;16.880;2023-06-14T11:23:32;6.80;;;4.10;;
24335;SDS011;33098;52.400;16.880;2023-06-14T11:25:59;5.30;;;3.80;;
24335;SDS011;33098;52.400;16.880;2023-06-14T11:28:44;7.50;;;3.90;;
24335;SDS011;33098;52.400;16.880;2023-06-14T11:31:10;7.10;;;3.80;;
24335;SDS011;33098;52.400;16.880;2023-06-14T11:33:37;6.90;;;3.60;;
24335;SDS011;33098;52.400;16.880;2023-06-14T11:36:05;7.00;;;3.50;;
24335;SDS011;33098;52.400;16.880;2023-06-14T11:38:37;10.20;;;3.90;;
24335;SDS011;33098;52.400;16.880;2023-06-14T11:41:04;5.90;;;3.40;;
24335;SDS011;33098;52.400;16.880;2023-06-14T11:43:31;5.30;;;3.50;;
24335;SDS011;33098;52.400;16.880;2023-06-14T11:45:59;6.90;;;3.60;;
24335;SDS011;33098;52.400;16.880;2023-06-14T11:51:22;6.00;;;3.80;;
24335;SDS011;33098;52.400;16.880;2023-06-14T11:53:48;12.10;;;3.90;;
24335;SDS011;33098;52.400;16.880;2023-06-14T11:56:15;4.80;;;3.70;;
24335;SDS011;33098;52.400;16.880;2023-06-14T11:58:43;7.50;;;3.50;;
24335;SDS011;33098;52.400;16.880;2023-06-14T12:01:13;7.10;;;3.70;;
24335;SDS011;33098;52.400;16.880;2023-06-14T12:03:46;7.80;;;3.30;;
24335;SDS011;33098;52.400;16.880;2023-06-14T12:06:14;7.10;;;3.80;;
24335;SDS011;33098;52.400;16.880;2023-06-14T12:08:42;7.10;;;3.70;;
24335;SDS011;33098;52.400;16.880;2023-06-14T12:11:11;6.70;;;3.80;;
24335;SDS011;33098;52.400;16.880;2023-06-14T12:13:40;10.60;;;3.80;;
24335;SDS011;33098;52.400;16.880;2023-06-14T12:16:08;7.80;;;3.40;;
24335;SDS011;33098;52.400;16.880;2023-06-14T12:18:35;6.00;;;3.40;;
24335;SDS011;33098;52.400;16.880;2023-06-14T12:21:04;6.10;;;3.70;;
24335;SDS011;33098;52.400;16.880;2023-06-14T12:23:42;8.30;;;3.20;;
24335;SDS011;33098;52.400;16.880;2023-06-14T12:26:17;6.80;;;3.40;;
24335;SDS011;33098;52.400;16.880;2023-06-14T12:28:46;7.70;;;3.40;;
24335;SDS011;33098;52.400;16.880;2023-06-14T12:31:14;4.30;;;3.80;;
24335;SDS011;33098;52.400;16.880;2023-06-14T12:33:42;5.90;;;3.30;;
24335;SDS011;33098;52.400;16.880;2023-06-14T12:36:09;5.30;;;3.70;;
24335;SDS011;33098;52.400;16.880;2023-06-14T12:38:36;5.40;;;3.60;;
24335;SDS011;33098;52.400;16.880;2023-06-14T12:41:04;12.90;;;3.90;;
24335;SDS011;33098;52.400;16.880;2023-06-14T12:43:30;7.00;;;3.60;;
24335;SDS011;33098;52.400;16.880;2023-06-14T12:45:57;7.90;;;3.60;;
24335;SDS011;33098;52.400;16.880;2023-06-14T12:48:23;6.10;;;3.20;;
24335;SDS011;33098;52.400;16.880;2023-06-14T12:50:50;6.40;;;3.30;;
24335;SDS011;33098;52.400;16.880;2023-06-14T12:53:16;6.60;;;3.70;;
24335;SDS011;33098;52.400;16.880;2023-06-14T12:55:43;4.00;;;3.20;;
24335;SDS011;33098;52.400;16.880;2023-06-14T12:58:10;4.20;;;3.20;;
24335;SDS011;33098;52.400;16.880;2023-06-14T13:00:39;7.10;;;3.20;;
24335;SDS011;33098;52.400;16.880;2023-06-14T13:03:06;5.10;;;3.00;;
24335;SDS011;33098;52.400;16.880;2023-06-14T13:05:32;5.10;;;3.70;;
24335;SDS011;33098;52.400;16.880;2023-06-14T13:08:00;8.70;;;3.50;;
24335;SDS011;33098;52.400;16.880;2023-06-14T13:10:27;4.70;;;3.50;;
24335;SDS011;33098;52.400;16.880;2023-06-14T13:12:54;4.70;;;3.30;;
24335;SDS011;33098;52.400;16.880;2023-06-14T13:15:20;4.30;;;3.70;;
24335;SDS011;33098;52.400;16.880;2023-06-14T13:17:47;5.30;;;3.40;;
24335;SDS011;33098;52.400;16.880;2023-06-14T13:20:14;5.10;;;2.90;;
24335;SDS011;33098;52.400;16.880;2023-06-14T13:22:42;5.80;;;3.30;;
24335;SDS011;33098;52.400;16.880;2023-06-14T13:25:09;4.30;;;3.00;;
24335;SDS011;33098;52.400;16.880;2023-06-14T13:27:36;7.00;;;3.00;;
24335;SDS011;33098;52.400;16.880;2023-06-14T13:30:03;6.00;;;3.20;;
24335;SDS011;33098;52.400;16.880;2023-06-14T13:32:31;6.30;;;3.00;;
24335;SDS011;33098;52.400;16.880;2023-06-14T13:34:58;6.30;;;3.20;;
24335;SDS011;33098;52.400;16.880;2023-06-14T13:37:24;4.20;;;3.10;;
24335;SDS011;33098;52.400;16.880;2023-06-14T13:39:51;4.50;;;3.10;;
24335;SDS011;33098;52.400;16.880;2023-06-14T13:42:18;5.50;;;3.10;;
24335;SDS011;33098;52.400;16.880;2023-06-14T13:44:44;5.10;;;3.40;;
24335;SDS011;33098;52.400;16.880;2023-06-14T13:47:11;6.00;;;3.10;;
24335;SDS011;33098;52.400;16.880;2023-06-14T13:49:38;7.80;;;3.30;;
24335;SDS011;33098;52.400;16.880;2023-06-14T13:52:05;5.30;;;3.40;;
24335;SDS011;33098;52.400;16.880;2023-06-14T13:54:31;5.00;;;3.00;;
24335;SDS011;33098;52.400;16.880;2023-06-14T13:56:58;3.00;;;2.60;;
24335;SDS011;33098;52.400;16.880;2023-06-14T13:59:25;8.90;;;3.80;;
24335;SDS011;33098;52.400;16.880;2023-06-14T14:01:52;7.90;;;3.30;;
24335;SDS011;33098;52.400;16.880;2023-06-14T14:04:18;5.80;;;3.20;;
24335;SDS011;33098;52.400;16.880;2023-06-14T14:06:45;4.60;;;3.20;;
24335;SDS011;33098;52.400;16.880;2023-06-14T14:09:12;5.60;;;3.60;;
24335;SDS011;33098;52.400;16.880;2023-06-14T14:11:39;4.70;;;3.00;;
24335;SDS011;33098;52.400;16.880;2023-06-14T14:14:06;4.20;;;3.10;;
24335;SDS011;33098;52.400;16.880;2023-06-14T14:16:32;5.30;;;3.60;;
24335;SDS011;33098;52.400;16.880;2023-06-14T14:18:59;6.30;;;3.50;;
24335;SDS011;33098;52.400;16.880;2023-06-14T14:21:26;6.40;;;3.20;;
24335;SDS011;33098;52.400;16.880;2023-06-14T14:23:52;4.60;;;2.80;;
24335;SDS011;33098;52.400;16.880;2023-06-14T14:26:19;6.00;;;3.10;;
24335;SDS011;33098;52.400;16.880;2023-06-14T14:28:46;4.20;;;3.20;;
24335;SDS011;33098;52.400;16.880;2023-06-14T14:31:13;7.50;;;3.20;;
24335;SDS011;33098;52.400;16.880;2023-06-14T14:33:39;6.10;;;3.10;;
24335;SDS011;33098;52.400;16.880;2023-06-14T14:36:06;5.20;;;3.00;;
24335;SDS011;33098;52.400;16.880;2023-06-14T14:38:34;9.00;;;3.30;;
24335;SDS011;33098;52.400;16.880;2023-06-14T14:41:00;3.90;;;3.20;;
24335;SDS011;33098;52.400;16.880;2023-06-14T14:43:27;5.80;;;3.30;;
24335;SDS011;33098;52.400;16.880;2023-06-14T14:45:57;4.80;;;2.60;;
24335;SDS011;33098;52.400;16.880;2023-06-14T14:48:24;3.80;;;3.40;;
24335;SDS011;33098;52.400;16.880;2023-06-14T14:50:51;4.70;;;3.60;;
24335;SDS011;33098;52.400;16.880;2023-06-14T14:53:17;7.30;;;3.20;;
24335;SDS011;33098;52.400;16.880;2023-06-14T14:55:44;5.00;;;3.20;;
24335;SDS011;33098;52.400;16.880;2023-06-14T14:58:12;4.90;;;2.80;;
24335;SDS011;33098;52.400;16.880;2023-06-14T15:00:39;7.50;;;3.20;;
24335;SDS011;33098;52.400;16.880;2023-06-14T15:03:05;5.60;;;3.00;;